Главная страница
METAR-TAF:

METAR-TAF

Аэропорты :

Schenectady County Airport

Скенектади, Нью-Йорк, США

широта: 42-51N, долгота: 073-56W, высота над уровнем моря: 115 м

Текущие метеонаблюдения

Эта сводка был подготовлена 1 час и 6 минут назад, в 13:55 UTC
Штиль
Температура 2°C
Влажность 60%
Давление 1021 hPa
Видимость: 24.1 км
Отдельные облака на высоте 4500 фута

METAR: KSCH 151355Z 00000KT 15SM SCT045 02/M05 A3016

Время: 10:01 (15:01 UTC)


TAF: отсутствует

Метеонаблюдения и прогнозы для более 4000 аэропортов (сводки METAR и TAF).

Имеющиеся станции представлены на карте желтыми и красными точками.

Чтобы увидеть название станции, наведите на нее мышь.

Затем щелкните, чтобы увидеть метеонаблюдения и метеопрогнозы.

Управление картой: чтобы увеличить масштаб, щелкните зеленые кнопки с черным крестиком; чтобы уменьшить масштаб, щелкните зеленую кнопку с тире; для просмотра соседних карт щелкайте зеленые стрелки.


METAR-TAF: